createdAt,value
2023-01-17T00:01:08.173Z,18.60
2023-01-17T00:04:13.476Z,12.80
2023-01-17T00:07:17.210Z,11.50
2023-01-17T00:10:21.531Z,10.70
2023-01-17T00:13:23.250Z,20.00
2023-01-17T00:16:24.831Z,17.20
2023-01-17T00:19:26.550Z,13.30
2023-01-17T00:22:29.910Z,10.90
2023-01-17T00:25:37.675Z,8.60
2023-01-17T00:28:40.649Z,8.50
2023-01-17T00:31:42.212Z,8.20
2023-01-17T00:34:43.891Z,8.80
2023-01-17T00:37:45.456Z,8.80
2023-01-17T00:40:48.154Z,9.00
2023-01-17T00:43:49.847Z,10.20
2023-01-17T00:46:51.408Z,7.60
2023-01-17T00:49:53.021Z,7.30
2023-01-17T00:52:54.569Z,6.60
2023-01-17T00:55:56.256Z,7.70
2023-01-17T00:58:57.794Z,6.40
2023-01-17T01:01:59.532Z,8.30
2023-01-17T01:05:01.813Z,7.60
2023-01-17T01:08:04.143Z,8.70
2023-01-17T01:11:07.609Z,7.90
2023-01-17T01:14:10.418Z,9.30
2023-01-17T01:17:12.027Z,10.50
2023-01-17T01:20:13.688Z,10.10
2023-01-17T01:23:15.365Z,10.10
2023-01-17T01:26:17.041Z,10.70
2023-01-17T01:29:18.956Z,10.10
2023-01-17T01:32:20.567Z,10.70
2023-01-17T01:35:23.457Z,9.10
2023-01-17T01:38:25.606Z,8.30
2023-01-17T01:41:27.361Z,6.50
2023-01-17T01:44:58.664Z,7.00
2023-01-17T01:48:35.823Z,6.20
2023-01-17T01:51:45.045Z,5.50
2023-01-17T01:54:50.254Z,5.50
2023-01-17T01:57:55.181Z,4.60
2023-01-17T02:00:56.937Z,5.10
2023-01-17T02:07:04.617Z,4.90
2023-01-17T02:10:06.399Z,6.70
2023-01-17T02:16:29.751Z,5.80
2023-01-17T02:19:50.617Z,10.70
2023-01-17T02:23:20.099Z,6.40
2023-01-17T02:26:42.630Z,9.00
2023-01-17T02:30:09.433Z,6.80
2023-01-17T02:33:17.267Z,6.40
2023-01-17T02:36:38.227Z,8.00
2023-01-17T02:39:50.973Z,8.40
2023-01-17T02:42:58.525Z,7.20
2023-01-17T02:46:00.427Z,6.10
2023-01-17T02:49:02.079Z,6.50
2023-01-17T02:52:34.335Z,11.10
2023-01-17T02:56:17.702Z,6.30
2023-01-17T02:59:30.571Z,7.90
2023-01-17T03:02:42.957Z,12.10
2023-01-17T03:05:54.684Z,8.70
2023-01-17T03:08:56.479Z,6.20
2023-01-17T03:15:00.219Z,7.90
2023-01-17T03:21:05.951Z,5.30
2023-01-17T03:24:07.781Z,5.40
2023-01-17T03:30:11.838Z,6.80
2023-01-17T03:33:13.697Z,7.00
2023-01-17T03:36:15.364Z,6.30
2023-01-17T03:39:16.944Z,6.50
2023-01-17T03:42:18.688Z,5.70
2023-01-17T03:45:20.245Z,6.20
2023-01-17T03:48:21.875Z,6.50
2023-01-17T03:51:23.591Z,5.50
2023-01-17T03:54:25.121Z,5.30
2023-01-17T03:57:26.714Z,4.90
2023-01-17T04:00:28.262Z,5.50
2023-01-17T04:03:30.078Z,4.90
2023-01-17T04:06:31.666Z,4.70
2023-01-17T04:09:33.240Z,5.10
2023-01-17T04:12:34.826Z,7.50
2023-01-17T04:15:36.431Z,9.40
2023-01-17T04:18:38.110Z,14.00
2023-01-17T04:24:41.507Z,10.70
2023-01-17T04:27:43.071Z,7.70
2023-01-17T04:30:44.596Z,7.50
2023-01-17T04:33:46.195Z,6.70
2023-01-17T04:36:47.866Z,6.80
2023-01-17T04:39:49.466Z,6.70
2023-01-17T04:42:51.171Z,6.80
2023-01-17T04:45:56.920Z,6.70
2023-01-17T04:48:58.528Z,5.50
2023-01-17T04:52:00.248Z,5.30
2023-01-17T04:55:01.960Z,5.80
2023-01-17T05:01:07.565Z,5.90
2023-01-17T05:04:09.530Z,6.30
2023-01-17T05:07:11.370Z,5.90
2023-01-17T05:13:15.180Z,6.90
2023-01-17T05:16:19.870Z,6.60
2023-01-17T05:19:22.430Z,5.60
2023-01-17T05:22:24.251Z,7.00
2023-01-17T05:31:29.637Z,6.50
2023-01-17T05:34:31.518Z,6.60
2023-01-17T05:40:34.831Z,6.40
2023-01-17T05:46:38.009Z,6.90
2023-01-17T05:52:41.521Z,19.40
2023-01-17T05:55:43.759Z,10.50
2023-01-17T05:58:45.332Z,8.80
2023-01-17T06:01:46.851Z,27.20
2023-01-17T06:04:48.404Z,7.40
2023-01-17T06:07:50.250Z,6.40
2023-01-17T06:10:51.804Z,5.20
2023-01-17T06:13:53.415Z,7.10
2023-01-17T06:16:54.948Z,6.70
2023-01-17T06:19:56.509Z,5.30
2023-01-17T06:23:00.776Z,5.90
2023-01-17T06:26:03.662Z,5.40
2023-01-17T06:29:05.285Z,5.70
2023-01-17T06:32:06.812Z,5.80
2023-01-17T06:35:08.717Z,5.10
2023-01-17T06:38:10.615Z,4.80
2023-01-17T06:44:13.705Z,5.50
2023-01-17T06:47:15.706Z,5.00
2023-01-17T06:50:17.237Z,6.60
2023-01-17T06:53:18.876Z,5.00
2023-01-17T06:56:20.923Z,6.80
2023-01-17T06:59:22.545Z,7.00
2023-01-17T07:02:24.224Z,6.80
2023-01-17T07:05:25.914Z,8.60
2023-01-17T07:08:27.698Z,7.70
2023-01-17T07:14:31.318Z,11.10
2023-01-17T07:17:34.595Z,8.30
2023-01-17T07:20:36.454Z,8.70
2023-01-17T07:23:38.178Z,7.70
2023-01-17T07:29:41.615Z,8.50
2023-01-17T07:32:43.190Z,8.10
2023-01-17T07:35:45.068Z,9.40
2023-01-17T07:41:48.395Z,10.60
2023-01-17T07:44:50.113Z,14.80
2023-01-17T07:50:54.142Z,9.00
2023-01-17T07:53:55.799Z,9.50
2023-01-17T07:56:57.390Z,16.30
2023-01-17T07:59:59.204Z,26.70
2023-01-17T08:03:01.221Z,24.90
2023-01-17T08:06:03.044Z,17.40
2023-01-17T08:09:04.832Z,15.00
2023-01-17T08:15:09.184Z,13.70
2023-01-17T08:18:11.019Z,14.30
2023-01-17T08:21:14.268Z,15.50
2023-01-17T08:24:15.936Z,18.10
2023-01-17T08:27:17.494Z,14.20
2023-01-17T08:30:19.252Z,22.90
2023-01-17T08:36:22.352Z,32.30
2023-01-17T08:39:24.114Z,22.90
2023-01-17T08:45:27.941Z,18.20
2023-01-17T08:48:29.704Z,17.90
2023-01-17T08:54:33.379Z,17.50
2023-01-17T08:57:34.876Z,17.90
2023-01-17T09:00:36.404Z,15.70
2023-01-17T09:03:40.762Z,13.90
2023-01-17T09:06:44.397Z,15.50
2023-01-17T09:09:46.352Z,13.90
2023-01-17T09:12:48.084Z,12.60
2023-01-17T09:15:49.756Z,12.70
2023-01-17T09:18:55.922Z,13.40
2023-01-17T09:21:57.598Z,16.60
2023-01-17T09:28:00.657Z,13.50
2023-01-17T09:31:07.133Z,12.10
2023-01-17T09:34:08.754Z,12.60
2023-01-17T09:37:10.329Z,13.10
2023-01-17T09:40:15.309Z,13.30
2023-01-17T09:43:41.032Z,13.70
2023-01-17T09:46:45.362Z,12.80
2023-01-17T09:49:47.339Z,13.50
2023-01-17T09:52:49.106Z,20.10
2023-01-17T09:59:33.188Z,19.00
2023-01-17T10:06:03.166Z,21.20
2023-01-17T10:09:33.253Z,17.80
2023-01-17T10:12:53.380Z,20.90
2023-01-17T10:16:17.843Z,22.80
2023-01-17T10:19:31.347Z,36.00
2023-01-17T10:22:42.053Z,36.30
2023-01-17T10:25:49.044Z,18.40
2023-01-17T10:28:52.804Z,18.00
2023-01-17T10:31:59.399Z,28.90
2023-01-17T10:35:06.341Z,19.60
2023-01-17T10:38:11.987Z,19.70
2023-01-17T10:41:22.452Z,18.90
2023-01-17T10:44:33.616Z,13.80
2023-01-17T10:47:37.431Z,11.40
2023-01-17T10:50:57.458Z,6.30
2023-01-17T10:54:08.447Z,4.90
2023-01-17T10:57:15.460Z,5.20
2023-01-17T11:00:25.832Z,4.40
2023-01-17T11:03:28.377Z,4.80
2023-01-17T11:06:30.122Z,4.90
2023-01-17T11:09:48.911Z,5.00
2023-01-17T11:12:50.513Z,5.10
2023-01-17T11:15:56.068Z,5.00
2023-01-17T11:19:17.876Z,5.10
2023-01-17T11:22:19.831Z,5.20
2023-01-17T11:25:22.119Z,5.20
2023-01-17T11:28:26.799Z,5.70
2023-01-17T11:31:28.441Z,5.40
2023-01-17T11:34:30.019Z,5.30
2023-01-17T11:37:31.885Z,5.30
2023-01-17T11:40:40.604Z,5.50
2023-01-17T11:43:57.627Z,5.60
2023-01-17T11:47:11.578Z,5.40
2023-01-17T11:50:24.802Z,4.70
2023-01-17T11:53:35.072Z,4.70
2023-01-17T11:56:37.097Z,5.40
2023-01-17T11:59:42.628Z,5.30
2023-01-17T12:03:14.848Z,5.40
2023-01-17T12:06:25.948Z,5.20
2023-01-17T12:09:32.728Z,5.60
2023-01-17T12:12:53.249Z,6.10
2023-01-17T12:16:30.813Z,6.20
2023-01-17T12:20:01.772Z,6.00
2023-01-17T12:23:14.376Z,5.60
2023-01-17T12:26:26.923Z,5.00
2023-01-17T12:29:55.481Z,4.80
2023-01-17T12:33:09.176Z,5.60
2023-01-17T12:36:28.191Z,5.60
2023-01-17T12:39:42.111Z,5.60
2023-01-17T12:42:54.408Z,5.30
2023-01-17T12:45:56.513Z,5.20
2023-01-17T12:49:03.097Z,5.70
2023-01-17T12:52:21.804Z,5.50
2023-01-17T12:56:02.438Z,5.00
2023-01-17T12:59:22.908Z,5.00
2023-01-17T13:02:54.897Z,5.90
2023-01-17T13:05:57.615Z,6.30
2023-01-17T13:09:01.151Z,5.40
2023-01-17T13:12:19.609Z,6.10
2023-01-17T13:15:27.362Z,6.20
2023-01-17T13:18:29.385Z,5.00
2023-01-17T13:21:34.713Z,5.40
2023-01-17T13:24:44.869Z,6.40
2023-01-17T13:28:15.988Z,6.50
2023-01-17T13:31:33.917Z,7.00
2023-01-17T13:35:10.088Z,12.10
2023-01-17T13:38:34.648Z,8.90
2023-01-17T13:41:51.390Z,7.00
2023-01-17T13:44:53.313Z,10.20
2023-01-17T13:48:19.594Z,8.70
2023-01-17T13:52:01.656Z,11.60
2023-01-17T13:58:28.867Z,10.00
2023-01-17T14:01:33.725Z,9.50
2023-01-17T14:05:07.055Z,7.60
2023-01-17T14:08:15.784Z,8.40
2023-01-17T14:11:17.378Z,9.20
2023-01-17T14:14:45.583Z,6.60
2023-01-17T14:17:51.284Z,9.60
2023-01-17T14:21:06.992Z,7.30
2023-01-17T14:24:11.575Z,7.90
2023-01-17T14:27:22.036Z,7.30
2023-01-17T14:30:28.491Z,6.80
2023-01-17T14:33:34.997Z,6.40
2023-01-17T14:36:36.677Z,5.60
2023-01-17T14:39:46.669Z,5.80
2023-01-17T14:42:56.562Z,5.20
2023-01-17T14:46:02.004Z,4.40
2023-01-17T14:49:22.993Z,5.00
2023-01-17T14:52:24.640Z,4.80
2023-01-17T14:58:29.313Z,4.60
2023-01-17T15:01:31.344Z,4.70
2023-01-17T15:04:32.996Z,5.00
2023-01-17T15:10:49.296Z,4.70
2023-01-17T15:13:53.506Z,5.00
2023-01-17T15:16:55.281Z,5.10
2023-01-17T15:19:59.664Z,5.30
2023-01-17T15:23:04.238Z,6.30
2023-01-17T15:29:13.451Z,6.30
2023-01-17T15:32:25.723Z,6.30
2023-01-17T15:35:27.367Z,12.50
2023-01-17T15:41:40.029Z,9.50
2023-01-17T15:44:48.512Z,9.10
2023-01-17T15:47:56.933Z,11.20
2023-01-17T15:50:58.635Z,12.70
2023-01-17T15:54:00.437Z,14.70
2023-01-17T15:57:15.804Z,14.10
2023-01-17T16:00:29.455Z,13.30
2023-01-17T16:03:31.242Z,11.40
2023-01-17T16:06:38.368Z,17.00
2023-01-17T16:09:42.460Z,18.40
2023-01-17T16:12:48.487Z,20.30
2023-01-17T16:15:51.265Z,27.20
2023-01-17T16:18:58.509Z,18.10
2023-01-17T16:22:00.401Z,21.70
2023-01-17T16:25:02.085Z,19.60
2023-01-17T16:28:04.442Z,29.30
2023-01-17T16:31:06.229Z,33.10
2023-01-17T16:34:10.808Z,56.80
2023-01-17T16:37:12.545Z,35.50
2023-01-17T16:40:14.155Z,53.40
2023-01-17T16:43:17.643Z,161.80
2023-01-17T16:46:20.711Z,82.60
2023-01-17T16:49:22.362Z,62.40
2023-01-17T16:55:25.878Z,52.80
2023-01-17T17:01:29.059Z,79.20
2023-01-17T17:04:30.809Z,66.70
2023-01-17T17:07:32.452Z,47.60
2023-01-17T17:10:33.978Z,53.60
2023-01-17T17:13:36.390Z,52.90
2023-01-17T17:16:38.628Z,47.70
2023-01-17T17:19:40.445Z,41.60
2023-01-17T17:25:43.690Z,28.70
2023-01-17T17:28:45.215Z,31.90
2023-01-17T17:31:46.783Z,50.40
2023-01-17T17:34:48.470Z,48.90
2023-01-17T17:37:50.235Z,49.20
2023-01-17T17:40:52.005Z,43.70
2023-01-17T17:43:54.598Z,40.10
2023-01-17T17:46:56.196Z,39.10
2023-01-17T17:49:57.863Z,32.60
2023-01-17T17:52:59.455Z,31.50
2023-01-17T17:56:05.711Z,28.10
2023-01-17T17:59:08.765Z,23.10
2023-01-17T18:02:10.898Z,31.80
2023-01-17T18:05:12.564Z,49.40
2023-01-17T18:08:14.158Z,45.90
2023-01-17T18:11:19.706Z,38.10
2023-01-17T18:14:21.336Z,37.40
2023-01-17T18:17:22.915Z,36.60
2023-01-17T18:20:24.600Z,35.10
2023-01-17T18:23:26.273Z,31.10
2023-01-17T18:26:29.894Z,29.50
2023-01-17T18:29:31.958Z,35.50
2023-01-17T18:32:33.614Z,35.70
2023-01-17T18:35:35.239Z,42.50
2023-01-17T18:41:43.163Z,39.00
2023-01-17T18:44:44.692Z,35.10
2023-01-17T18:47:46.268Z,26.00
2023-01-17T18:50:56.067Z,22.60
2023-01-17T18:53:57.835Z,22.40
2023-01-17T18:56:59.547Z,24.70
2023-01-17T19:00:01.282Z,26.80
2023-01-17T19:03:02.923Z,30.50
2023-01-17T19:06:05.700Z,29.40
2023-01-17T19:09:08.475Z,33.80
2023-01-17T19:12:10.172Z,34.10
2023-01-17T19:15:11.888Z,34.00
2023-01-17T19:18:13.632Z,35.70
2023-01-17T19:21:17.919Z,38.10
2023-01-17T19:24:19.469Z,39.10
2023-01-17T19:27:21.589Z,34.60
2023-01-17T19:30:23.468Z,30.00
2023-01-17T19:33:25.089Z,31.50
2023-01-17T19:39:36.075Z,36.70
2023-01-17T19:42:37.690Z,38.90
2023-01-17T19:45:39.329Z,35.10
2023-01-17T19:48:40.976Z,30.40
2023-01-17T19:51:42.694Z,25.10
2023-01-17T19:54:44.496Z,24.10
2023-01-17T20:00:48.097Z,24.90
2023-01-17T20:03:51.817Z,24.50
2023-01-17T20:06:53.637Z,23.40
2023-01-17T20:09:55.424Z,21.80
2023-01-17T20:16:03.564Z,19.90
2023-01-17T20:19:05.399Z,22.60
2023-01-17T20:22:07.382Z,21.80
2023-01-17T20:25:11.499Z,21.00
2023-01-17T20:28:13.975Z,18.20
2023-01-17T20:31:18.880Z,17.80
2023-01-17T20:34:21.318Z,17.40
2023-01-17T20:37:22.992Z,18.70
2023-01-17T20:43:26.046Z,19.10
2023-01-17T20:46:32.708Z,15.90
2023-01-17T20:49:34.404Z,16.70
2023-01-17T20:52:36.066Z,18.50
2023-01-17T20:55:37.640Z,17.30
2023-01-17T20:58:39.602Z,17.70
2023-01-17T21:01:41.806Z,15.30
2023-01-17T21:04:43.417Z,15.90
2023-01-17T21:08:05.004Z,14.40
2023-01-17T21:17:10.531Z,16.40
2023-01-17T21:20:12.546Z,16.80
2023-01-17T21:23:14.643Z,18.70
2023-01-17T21:26:17.678Z,18.10
2023-01-17T21:29:21.597Z,18.50
2023-01-17T21:32:23.648Z,17.10
2023-01-17T21:35:43.569Z,17.30
2023-01-17T21:38:53.112Z,16.70
2023-01-17T21:41:54.868Z,20.40
2023-01-17T21:44:56.444Z,20.70
2023-01-17T21:47:59.152Z,20.70
2023-01-17T21:51:05.625Z,18.10
2023-01-17T21:54:08.431Z,17.20
2023-01-17T21:57:11.447Z,18.50
2023-01-17T22:00:14.095Z,20.80
2023-01-17T22:03:15.685Z,22.30
2023-01-17T22:06:18.765Z,19.80
2023-01-17T22:09:20.415Z,19.30
2023-01-17T22:12:22.058Z,17.40
2023-01-17T22:15:23.815Z,15.90
2023-01-17T22:21:28.428Z,15.50
2023-01-17T22:24:29.985Z,16.80
2023-01-17T22:27:31.711Z,15.60
2023-01-17T22:33:35.872Z,17.40
2023-01-17T22:36:37.636Z,16.60
2023-01-17T22:42:41.033Z,17.60
2023-01-17T22:45:42.618Z,16.90
2023-01-17T22:48:44.913Z,15.90
2023-01-17T22:51:46.806Z,17.60
2023-01-17T22:54:48.547Z,19.70
2023-01-17T23:00:51.534Z,21.30
2023-01-17T23:03:56.049Z,18.00
2023-01-17T23:06:57.637Z,21.90
2023-01-17T23:09:59.620Z,21.60
2023-01-17T23:13:01.331Z,19.70
2023-01-17T23:19:08.255Z,20.00
2023-01-17T23:22:12.891Z,20.60
2023-01-17T23:25:14.734Z,21.40
2023-01-17T23:28:16.418Z,20.90
2023-01-17T23:34:19.865Z,19.30
2023-01-17T23:37:21.915Z,18.20
2023-01-17T23:40:23.569Z,18.40
2023-01-17T23:46:27.246Z,17.00
2023-01-17T23:49:28.869Z,17.60
2023-01-17T23:52:30.514Z,16.50
2023-01-17T23:55:32.836Z,14.40
2023-01-17T23:58:34.595Z,14.90
